createdAt,value
2023-03-06T00:00:19.832Z,3.83
2023-03-06T00:01:19.841Z,3.83
2023-03-06T00:02:19.905Z,3.83
2023-03-06T00:03:19.984Z,3.82
2023-03-06T00:04:19.880Z,3.80
2023-03-06T00:05:19.822Z,3.79
2023-03-06T00:06:19.954Z,3.80
2023-03-06T00:07:19.922Z,3.80
2023-03-06T00:08:19.800Z,3.80
2023-03-06T00:09:19.917Z,3.80
2023-03-06T00:10:20.006Z,3.82
2023-03-06T00:11:19.867Z,3.82
2023-03-06T00:12:19.764Z,3.82
2023-03-06T00:13:20.334Z,3.82
2023-03-06T00:14:19.889Z,3.80
2023-03-06T00:15:19.881Z,3.80
2023-03-06T00:16:20.007Z,3.82
2023-03-06T00:17:19.702Z,3.82
2023-03-06T00:18:19.786Z,3.82
2023-03-06T00:19:19.818Z,3.82
2023-03-06T00:20:19.770Z,3.80
2023-03-06T00:21:19.854Z,3.80
2023-03-06T00:22:19.982Z,3.80
2023-03-06T00:23:19.561Z,3.80
2023-03-06T00:24:21.232Z,3.79
2023-03-06T00:25:19.615Z,3.78
2023-03-06T00:26:20.054Z,3.78
2023-03-06T00:27:20.126Z,3.76
2023-03-06T00:28:19.692Z,3.76
2023-03-06T00:29:20.141Z,3.75
2023-03-06T00:30:19.521Z,3.76
2023-03-06T00:31:19.472Z,3.76
2023-03-06T00:32:19.493Z,3.78
2023-03-06T00:33:19.639Z,3.78
2023-03-06T00:34:19.648Z,3.76
2023-03-06T00:35:20.131Z,3.75
2023-03-06T00:36:19.569Z,3.72
2023-03-06T00:37:19.422Z,3.72
2023-03-06T00:38:19.785Z,3.71
2023-03-06T00:39:19.424Z,3.72
2023-03-06T00:40:19.599Z,3.70
2023-03-06T00:41:19.485Z,3.70
2023-03-06T00:42:19.481Z,3.70
2023-03-06T00:43:19.543Z,3.70
2023-03-06T00:44:19.637Z,3.70
2023-03-06T00:45:19.556Z,3.70
2023-03-06T00:46:19.602Z,3.71
2023-03-06T00:47:19.415Z,3.70
2023-03-06T00:48:19.911Z,3.70
2023-03-06T00:49:19.976Z,3.71
2023-03-06T00:50:19.458Z,3.68
2023-03-06T00:51:19.734Z,3.68
2023-03-06T00:52:19.343Z,3.71
2023-03-06T00:53:19.475Z,3.70
2023-03-06T00:54:19.513Z,3.68
2023-03-06T00:55:19.284Z,3.68
2023-03-06T00:56:20.016Z,3.68
2023-03-06T00:57:19.227Z,3.67
2023-03-06T00:58:19.428Z,3.67
2023-03-06T00:59:19.326Z,3.67
2023-03-06T01:00:19.250Z,3.65
2023-03-06T01:01:19.334Z,3.65
2023-03-06T01:02:19.286Z,3.64
2023-03-06T01:03:19.165Z,3.67
2023-03-06T01:04:19.356Z,3.67
2023-03-06T01:05:19.576Z,3.70
2023-03-06T01:06:19.291Z,3.70
2023-03-06T01:07:19.097Z,3.68
2023-03-06T01:08:19.111Z,3.68
2023-03-06T01:09:19.092Z,3.67
2023-03-06T01:10:19.144Z,3.70
2023-03-06T01:11:19.057Z,3.67
2023-03-06T01:12:21.356Z,3.68
2023-03-06T01:13:19.257Z,3.68
2023-03-06T01:14:19.023Z,3.68
2023-03-06T01:15:19.016Z,3.68
2023-03-06T01:16:19.165Z,3.70
2023-03-06T01:17:19.189Z,3.68
2023-03-06T01:18:19.038Z,3.68
2023-03-06T01:19:19.040Z,3.68
2023-03-06T01:20:19.001Z,3.67
2023-03-06T01:21:18.991Z,3.65
2023-03-06T01:22:19.235Z,3.65
2023-03-06T01:23:19.154Z,3.67
2023-03-06T01:24:18.947Z,3.65
2023-03-06T01:25:19.095Z,3.64
2023-03-06T01:26:18.958Z,3.62
2023-03-06T01:27:18.912Z,3.62
2023-03-06T01:28:18.912Z,3.60
2023-03-06T01:29:18.887Z,3.62
2023-03-06T01:30:18.969Z,3.61
2023-03-06T01:31:18.882Z,3.60
2023-03-06T01:32:18.881Z,3.60
2023-03-06T01:33:19.075Z,3.58
2023-03-06T01:34:18.822Z,3.57
2023-03-06T01:35:18.887Z,3.57
2023-03-06T01:36:18.832Z,3.54
2023-03-06T01:37:18.807Z,3.54
2023-03-06T01:38:18.793Z,3.57
2023-03-06T01:39:18.786Z,3.57
2023-03-06T01:40:18.940Z,3.57
2023-03-06T01:41:18.760Z,3.54
2023-03-06T01:42:18.800Z,3.54
2023-03-06T01:43:18.754Z,3.57
2023-03-06T01:44:18.792Z,3.57
2023-03-06T01:45:18.791Z,3.54
2023-03-06T01:46:19.101Z,3.52
2023-03-06T01:47:18.738Z,3.53
2023-03-06T01:48:18.784Z,3.52
2023-03-06T01:49:18.685Z,3.50
2023-03-06T01:50:18.706Z,3.49
2023-03-06T01:51:18.745Z,3.49
2023-03-06T01:52:18.920Z,3.47
2023-03-06T01:53:18.836Z,3.47
2023-03-06T01:54:18.804Z,3.46
2023-03-06T01:55:19.155Z,3.47
2023-03-06T01:56:18.636Z,3.47
2023-03-06T01:57:18.670Z,3.46
2023-03-06T01:58:18.639Z,3.43
2023-03-06T01:59:18.597Z,3.44
2023-03-06T02:00:18.659Z,3.44
2023-03-06T02:01:18.604Z,3.42
2023-03-06T02:02:18.608Z,3.42
2023-03-06T02:03:18.570Z,3.42
2023-03-06T02:04:18.965Z,3.42
2023-03-06T02:05:18.594Z,3.42
2023-03-06T02:06:18.605Z,3.42
2023-03-06T02:07:18.744Z,3.40
2023-03-06T02:08:18.618Z,3.40
2023-03-06T02:09:18.502Z,3.40
2023-03-06T02:10:18.742Z,3.42
2023-03-06T02:11:19.167Z,3.43
2023-03-06T02:12:18.813Z,3.43
2023-03-06T02:13:18.467Z,3.42
2023-03-06T02:14:19.246Z,3.43
2023-03-06T02:15:18.711Z,3.42
2023-03-06T02:16:18.851Z,3.43
2023-03-06T02:17:18.555Z,3.44
2023-03-06T02:18:18.691Z,3.43
2023-03-06T02:19:18.399Z,3.44
2023-03-06T02:20:18.436Z,3.44
2023-03-06T02:21:18.553Z,3.44
2023-03-06T02:22:18.458Z,3.47
2023-03-06T02:23:18.396Z,3.47
2023-03-06T02:24:18.581Z,3.49
2023-03-06T02:25:18.476Z,3.47
2023-03-06T02:26:18.322Z,3.47
2023-03-06T02:27:18.345Z,3.47
2023-03-06T02:28:18.345Z,3.49
2023-03-06T02:29:18.355Z,3.47
2023-03-06T02:30:18.320Z,3.50
2023-03-06T02:31:18.335Z,3.50
2023-03-06T02:32:18.348Z,3.50
2023-03-06T02:33:18.323Z,3.50
2023-03-06T02:34:18.496Z,3.50
2023-03-06T02:35:18.245Z,3.52
2023-03-06T02:36:18.308Z,3.52
2023-03-06T02:37:18.332Z,3.52
2023-03-06T02:38:18.445Z,3.52
2023-03-06T02:39:18.550Z,3.52
2023-03-06T02:40:18.214Z,3.53
2023-03-06T02:41:18.246Z,3.54
2023-03-06T02:42:18.246Z,3.53
2023-03-06T02:43:18.681Z,3.54
2023-03-06T02:44:18.406Z,3.54
2023-03-06T02:45:18.135Z,3.53
2023-03-06T02:46:18.183Z,3.53
2023-03-06T02:47:18.150Z,3.54
2023-03-06T02:48:18.303Z,3.54
2023-03-06T02:49:18.322Z,3.58
2023-03-06T02:50:18.084Z,3.58
2023-03-06T02:51:18.124Z,3.57
2023-03-06T02:52:18.091Z,3.54
2023-03-06T02:53:18.623Z,3.57
2023-03-06T02:54:18.089Z,3.54
2023-03-06T02:55:18.122Z,3.54
2023-03-06T02:56:18.368Z,3.54
2023-03-06T02:57:18.084Z,3.54
2023-03-06T02:58:18.042Z,3.57
2023-03-06T02:59:18.108Z,3.54
2023-03-06T03:00:18.016Z,3.57
2023-03-06T03:01:18.035Z,3.57
2023-03-06T03:02:18.032Z,3.57
2023-03-06T03:03:17.934Z,3.58
2023-03-06T03:04:18.001Z,3.60
2023-03-06T03:05:18.126Z,3.60
2023-03-06T03:06:18.069Z,3.58
2023-03-06T03:07:18.012Z,3.60
2023-03-06T03:08:18.624Z,3.58
2023-03-06T03:09:18.309Z,3.58
2023-03-06T03:10:18.378Z,3.54
2023-03-06T03:11:18.294Z,3.54
2023-03-06T03:12:18.269Z,3.53
2023-03-06T03:13:17.862Z,3.54
2023-03-06T03:14:17.886Z,3.57
2023-03-06T03:15:17.855Z,3.54
2023-03-06T03:16:17.987Z,3.53
2023-03-06T03:17:17.826Z,3.54
2023-03-06T03:18:18.093Z,3.52
2023-03-06T03:19:17.797Z,3.52
2023-03-06T03:20:17.808Z,3.53
2023-03-06T03:21:17.842Z,3.52
2023-03-06T03:22:18.315Z,3.52
2023-03-06T03:23:17.900Z,3.53
2023-03-06T03:24:18.774Z,3.52
2023-03-06T03:25:17.929Z,3.50
2023-03-06T03:26:18.069Z,3.50
2023-03-06T03:27:17.918Z,3.49
2023-03-06T03:28:18.032Z,3.46
2023-03-06T03:29:17.744Z,3.47
2023-03-06T03:30:18.165Z,3.46
2023-03-06T03:31:18.100Z,3.47
2023-03-06T03:32:17.785Z,3.47
2023-03-06T03:33:17.986Z,3.46
2023-03-06T03:34:17.636Z,3.46
2023-03-06T03:35:17.646Z,3.44
2023-03-06T03:36:17.726Z,3.43
2023-03-06T03:37:17.779Z,3.43
2023-03-06T03:38:17.635Z,3.43
2023-03-06T03:39:17.841Z,3.40
2023-03-06T03:40:17.654Z,3.40
2023-03-06T03:41:17.668Z,3.39
2023-03-06T03:42:18.040Z,3.39
2023-03-06T03:43:17.594Z,3.34
2023-03-06T03:44:17.587Z,3.36
2023-03-06T03:45:17.677Z,3.36
2023-03-06T03:46:17.573Z,3.36
2023-03-06T03:47:17.703Z,3.36
2023-03-06T03:48:17.546Z,3.36
2023-03-06T03:49:17.508Z,3.36
2023-03-06T03:50:17.482Z,3.34
2023-03-06T03:51:17.548Z,3.33
2023-03-06T03:52:17.511Z,3.34
2023-03-06T03:53:17.470Z,3.36
2023-03-06T03:54:17.608Z,3.34
2023-03-06T03:55:17.678Z,3.34
2023-03-06T03:56:17.645Z,3.33
2023-03-06T03:57:17.852Z,3.33
2023-03-06T03:58:17.423Z,3.34
2023-03-06T03:59:17.457Z,3.34
2023-03-06T04:00:17.522Z,3.34
2023-03-06T04:01:17.417Z,3.34
2023-03-06T04:02:17.571Z,3.36
2023-03-06T04:03:17.377Z,3.36
2023-03-06T04:04:17.452Z,3.39
2023-03-06T04:05:17.710Z,3.36
2023-03-06T04:06:17.404Z,3.39
2023-03-06T04:07:17.375Z,3.36
2023-03-06T04:08:17.331Z,3.39
2023-03-06T04:09:17.892Z,3.39
2023-03-06T04:10:17.639Z,3.36
2023-03-06T04:11:17.308Z,3.36
2023-03-06T04:12:17.616Z,3.34
2023-03-06T04:13:17.552Z,3.34
2023-03-06T04:14:17.511Z,3.34
2023-03-06T04:15:17.561Z,3.31
2023-03-06T04:16:17.435Z,3.31
2023-03-06T04:17:17.635Z,3.28
2023-03-06T04:18:17.380Z,3.27
2023-03-06T04:19:17.463Z,3.27
2023-03-06T04:20:17.186Z,3.27
2023-03-06T04:21:17.363Z,3.27
2023-03-06T04:22:17.335Z,3.28
2023-03-06T04:23:17.184Z,3.30
2023-03-06T04:24:17.801Z,3.30
2023-03-06T04:25:17.288Z,3.28
2023-03-06T04:26:17.320Z,3.27
2023-03-06T04:27:17.216Z,3.27
2023-03-06T04:28:17.523Z,3.25
2023-03-06T04:29:18.036Z,3.27
2023-03-06T04:30:17.903Z,3.27
2023-03-06T04:31:17.637Z,3.28
2023-03-06T04:32:18.305Z,3.27
2023-03-06T04:33:17.055Z,3.24
2023-03-06T04:34:17.077Z,3.28
2023-03-06T04:35:17.161Z,3.25
2023-03-06T04:36:17.217Z,3.25
2023-03-06T04:37:17.362Z,3.24
2023-03-06T04:38:17.528Z,3.23
2023-03-06T04:39:17.128Z,3.21
2023-03-06T04:40:17.390Z,3.21
2023-03-06T04:41:17.035Z,3.21
2023-03-06T04:42:17.178Z,3.21
2023-03-06T04:43:16.999Z,3.21
2023-03-06T04:44:17.174Z,3.20
2023-03-06T04:45:16.935Z,3.20
2023-03-06T04:46:16.927Z,3.18
2023-03-06T04:47:19.051Z,3.16
2023-03-06T04:48:16.964Z,3.15
2023-03-06T04:49:16.967Z,3.13
2023-03-06T04:50:17.138Z,3.15
2023-03-06T04:51:16.927Z,3.13
2023-03-06T04:52:17.134Z,3.15
2023-03-06T04:53:17.184Z,3.16
2023-03-06T04:54:19.081Z,3.15
2023-03-06T04:55:17.691Z,3.15
2023-03-06T04:56:17.081Z,3.13
2023-03-06T04:57:16.813Z,3.12
2023-03-06T04:58:16.805Z,3.10
2023-03-06T04:59:16.827Z,3.06
2023-03-06T05:00:16.877Z,3.03
2023-03-06T05:01:16.847Z,3.00
2023-03-06T05:02:16.845Z,2.97
2023-03-06T05:03:16.794Z,2.94
2023-03-06T05:04:16.912Z,2.94
2023-03-06T05:05:16.737Z,2.92
2023-03-06T05:06:16.752Z,2.91
2023-03-06T05:07:16.705Z,2.88
2023-03-06T05:08:16.919Z,2.88
2023-03-06T05:09:16.712Z,2.87
2023-03-06T05:10:16.697Z,2.87
2023-03-06T05:11:16.666Z,2.88
2023-03-06T05:12:17.302Z,2.88
2023-03-06T05:13:17.001Z,2.88
2023-03-06T05:14:17.077Z,2.89
2023-03-06T05:15:16.655Z,2.89
2023-03-06T05:16:16.667Z,2.89
2023-03-06T05:17:16.841Z,2.89
2023-03-06T05:18:16.653Z,2.89
2023-03-06T05:19:16.623Z,2.91
2023-03-06T05:20:16.789Z,2.89
2023-03-06T05:21:16.568Z,2.88
2023-03-06T05:22:16.574Z,2.87
2023-03-06T05:23:16.556Z,2.88
2023-03-06T05:24:16.716Z,2.88
2023-03-06T05:25:16.600Z,2.88
2023-03-06T05:26:16.956Z,2.89
2023-03-06T05:27:17.031Z,2.91
2023-03-06T05:28:16.732Z,2.91
2023-03-06T05:29:16.540Z,2.91
2023-03-06T05:30:16.534Z,2.92
2023-03-06T05:31:16.846Z,2.92
2023-03-06T05:32:16.886Z,2.95
2023-03-06T05:33:16.474Z,2.94
2023-03-06T05:34:16.464Z,2.94
2023-03-06T05:35:16.581Z,2.97
2023-03-06T05:36:16.543Z,2.97
2023-03-06T05:37:16.423Z,2.97
2023-03-06T05:38:16.444Z,2.97
2023-03-06T05:39:16.748Z,2.98
2023-03-06T05:40:16.715Z,3.00
2023-03-06T05:41:16.385Z,2.97
2023-03-06T05:42:16.751Z,2.97
2023-03-06T05:43:16.390Z,2.97
2023-03-06T05:44:16.361Z,2.94
2023-03-06T05:45:16.708Z,2.92
2023-03-06T05:46:16.485Z,2.91
2023-03-06T05:47:17.414Z,2.89
2023-03-06T05:48:16.385Z,2.89
2023-03-06T05:49:16.335Z,2.87
2023-03-06T05:50:16.642Z,2.85
2023-03-06T05:51:16.790Z,2.85
2023-03-06T05:52:16.737Z,2.82
2023-03-06T05:53:16.344Z,2.82
2023-03-06T05:54:16.651Z,2.82
2023-03-06T05:55:16.358Z,2.81
2023-03-06T05:56:16.569Z,2.84
2023-03-06T05:57:16.665Z,2.82
2023-03-06T05:58:16.460Z,2.81
2023-03-06T05:59:16.378Z,2.79
2023-03-06T06:00:16.458Z,2.76
2023-03-06T06:01:16.774Z,2.74
2023-03-06T06:02:16.252Z,2.76
2023-03-06T06:03:16.534Z,2.76
2023-03-06T06:04:16.201Z,2.74
2023-03-06T06:05:16.330Z,2.74
2023-03-06T06:06:16.957Z,2.74
2023-03-06T06:07:16.492Z,2.74
2023-03-06T06:08:16.185Z,2.76
2023-03-06T06:09:16.476Z,2.77
2023-03-06T06:10:16.242Z,2.79
2023-03-06T06:11:16.191Z,2.79
2023-03-06T06:12:16.208Z,2.77
2023-03-06T06:13:16.507Z,2.77
2023-03-06T06:14:16.120Z,2.76
2023-03-06T06:15:16.379Z,2.74
2023-03-06T06:16:16.303Z,2.76
2023-03-06T06:17:16.430Z,2.73
2023-03-06T06:18:16.256Z,2.74
2023-03-06T06:19:16.233Z,2.76
2023-03-06T06:20:16.146Z,2.74
2023-03-06T06:21:16.507Z,2.73
2023-03-06T06:22:16.252Z,2.73
2023-03-06T06:23:15.997Z,2.71
2023-03-06T06:24:16.234Z,2.71
2023-03-06T06:25:16.155Z,2.71
2023-03-06T06:26:16.170Z,2.71
2023-03-06T06:27:16.373Z,2.73
2023-03-06T06:28:16.153Z,2.74
2023-03-06T06:29:16.107Z,2.74
2023-03-06T06:30:15.954Z,2.74
2023-03-06T06:31:16.398Z,2.74
2023-03-06T06:32:15.933Z,2.74
2023-03-06T06:33:16.233Z,2.74
2023-03-06T06:34:16.197Z,2.71
2023-03-06T06:35:15.934Z,2.69
2023-03-06T06:36:16.595Z,2.69
2023-03-06T06:37:15.855Z,2.66
2023-03-06T06:38:15.847Z,2.67
2023-03-06T06:39:15.852Z,2.69
2023-03-06T06:40:15.948Z,2.69
2023-03-06T06:41:46.560Z,2.70
2023-03-06T06:42:30.502Z,2.69
2023-03-06T06:43:15.829Z,2.70
2023-03-06T06:44:15.938Z,2.71
2023-03-06T06:45:15.788Z,2.73
2023-03-06T06:46:53.373Z,2.73
2023-03-06T06:47:22.879Z,2.74
2023-03-06T06:48:17.929Z,2.76
2023-03-06T06:49:15.872Z,2.79
2023-03-06T06:50:15.939Z,2.81
2023-03-06T06:51:15.702Z,2.81
2023-03-06T06:52:15.734Z,2.84
2023-03-06T06:53:16.024Z,2.84
2023-03-06T06:54:16.123Z,2.84
2023-03-06T06:55:15.917Z,2.87
2023-03-06T06:56:15.688Z,2.88
2023-03-06T06:57:15.777Z,2.89
2023-03-06T06:58:15.772Z,2.88
2023-03-06T06:59:17.610Z,2.89
2023-03-06T07:00:15.706Z,2.92
2023-03-06T07:01:15.849Z,2.92
2023-03-06T07:02:15.639Z,2.92
2023-03-06T07:03:15.821Z,2.95
2023-03-06T07:04:15.902Z,2.97
2023-03-06T07:05:15.613Z,2.98
2023-03-06T07:06:15.613Z,3.02
2023-03-06T07:07:15.709Z,3.03
2023-03-06T07:08:15.599Z,3.07
2023-03-06T07:09:15.832Z,3.05
2023-03-06T07:10:16.062Z,3.06
2023-03-06T07:11:15.856Z,3.09
2023-03-06T07:12:15.759Z,3.09
2023-03-06T07:13:15.622Z,3.12
2023-03-06T07:14:15.506Z,3.15
2023-03-06T07:15:15.658Z,3.16
2023-03-06T07:16:15.643Z,3.18
2023-03-06T07:17:15.470Z,3.20
2023-03-06T07:18:15.538Z,3.16
2023-03-06T07:19:15.490Z,3.20
2023-03-06T07:20:15.665Z,3.20
2023-03-06T07:21:15.446Z,3.23
2023-03-06T07:22:15.523Z,3.21
2023-03-06T07:23:15.421Z,3.23
2023-03-06T07:24:15.675Z,3.27
2023-03-06T07:25:15.366Z,3.27
2023-03-06T07:26:15.370Z,3.28
2023-03-06T07:27:15.352Z,3.27
2023-03-06T07:28:16.886Z,3.28
2023-03-06T07:29:15.473Z,3.28
2023-03-06T07:30:15.391Z,3.30
2023-03-06T07:31:15.434Z,3.30
2023-03-06T07:32:15.403Z,3.31
2023-03-06T07:33:15.386Z,3.36
2023-03-06T07:34:15.472Z,3.39
2023-03-06T07:35:20.212Z,3.40
2023-03-06T07:36:15.592Z,3.43
2023-03-06T07:37:15.290Z,3.47
2023-03-06T07:38:15.301Z,3.47
2023-03-06T07:39:15.281Z,3.53
2023-03-06T07:40:15.303Z,3.54
2023-03-06T07:41:15.349Z,3.58
2023-03-06T07:42:15.412Z,3.62
2023-03-06T07:43:19.467Z,3.60
2023-03-06T07:44:15.248Z,3.61
2023-03-06T07:45:15.257Z,3.64
2023-03-06T07:46:15.290Z,3.65
2023-03-06T07:47:15.377Z,3.67
2023-03-06T07:48:15.516Z,3.71
2023-03-06T07:49:15.182Z,3.78
2023-03-06T07:50:15.256Z,3.82
2023-03-06T07:51:15.164Z,3.86
2023-03-06T07:52:15.689Z,3.89
2023-03-06T07:53:15.289Z,3.94
2023-03-06T07:54:15.208Z,3.98
2023-03-06T07:55:15.270Z,4.03
2023-03-06T07:56:15.108Z,4.04
2023-03-06T07:57:15.422Z,4.08
2023-03-06T07:58:15.106Z,4.08
2023-03-06T07:59:15.066Z,4.08
2023-03-06T08:00:15.256Z,4.10
2023-03-06T08:01:15.087Z,4.10
2023-03-06T08:02:15.344Z,4.15
2023-03-06T08:03:15.422Z,4.19
2023-03-06T08:04:15.083Z,4.24
2023-03-06T08:05:15.192Z,4.26
2023-03-06T08:06:15.225Z,4.26
2023-03-06T08:07:15.170Z,4.29
2023-03-06T08:08:14.984Z,4.26
2023-03-06T08:09:14.959Z,4.26
2023-03-06T08:10:14.932Z,4.28
2023-03-06T08:11:14.890Z,4.26
2023-03-06T08:12:16.679Z,4.26
2023-03-06T08:13:14.896Z,4.28
2023-03-06T08:14:14.923Z,4.36
2023-03-06T08:15:14.978Z,4.34
2023-03-06T08:16:15.012Z,4.36
2023-03-06T08:17:14.856Z,4.39
2023-03-06T08:18:15.659Z,4.33
2023-03-06T08:19:14.892Z,4.29
2023-03-06T08:20:14.887Z,4.29
2023-03-06T08:21:14.847Z,4.29
2023-03-06T08:22:14.926Z,4.29
2023-03-06T08:23:14.894Z,4.29
2023-03-06T08:24:14.856Z,4.26
2023-03-06T08:25:14.896Z,4.25
2023-03-06T08:26:14.822Z,4.21
2023-03-06T08:27:14.762Z,4.14
2023-03-06T08:28:14.776Z,4.10
2023-03-06T08:29:14.738Z,4.03
2023-03-06T08:30:14.912Z,4.04
2023-03-06T08:31:15.148Z,4.00
2023-03-06T08:32:14.913Z,3.97
2023-03-06T08:33:15.135Z,3.97
2023-03-06T08:34:14.730Z,3.94
2023-03-06T08:35:14.770Z,3.92
2023-03-06T08:36:14.758Z,3.90
2023-03-06T08:37:14.702Z,3.88
2023-03-06T08:38:14.692Z,3.82
2023-03-06T08:39:14.856Z,3.79
2023-03-06T08:40:14.648Z,3.76
2023-03-06T08:41:14.906Z,3.76
2023-03-06T08:42:14.785Z,3.71
2023-03-06T08:43:14.774Z,3.75
2023-03-06T08:44:14.677Z,3.70
2023-03-06T08:45:14.752Z,3.65
2023-03-06T08:46:14.776Z,3.61
2023-03-06T08:47:14.681Z,3.54
2023-03-06T08:48:14.769Z,3.47
2023-03-06T08:49:14.718Z,3.44
2023-03-06T08:50:14.540Z,3.40
2023-03-06T08:51:14.734Z,3.36
2023-03-06T08:52:14.947Z,3.31
2023-03-06T08:53:14.542Z,3.30
2023-03-06T08:54:14.560Z,3.30
2023-03-06T08:55:15.208Z,3.28
2023-03-06T08:56:14.742Z,3.25
2023-03-06T08:57:14.665Z,3.24
2023-03-06T08:58:14.458Z,3.21
2023-03-06T08:59:14.652Z,3.20
2023-03-06T09:00:14.722Z,3.23
2023-03-06T09:01:14.618Z,3.24
2023-03-06T09:02:14.469Z,3.24
2023-03-06T09:03:14.431Z,3.25
2023-03-06T09:04:14.712Z,3.23
2023-03-06T09:05:14.411Z,3.23
2023-03-06T09:06:14.412Z,3.24
2023-03-06T09:07:14.395Z,3.30
2023-03-06T09:08:14.378Z,3.36
2023-03-06T09:09:14.441Z,3.44
2023-03-06T09:10:14.400Z,3.54
2023-03-06T09:11:14.330Z,3.67
2023-03-06T09:12:14.377Z,3.75
2023-03-06T09:13:14.406Z,3.79
2023-03-06T09:14:14.550Z,3.83
2023-03-06T09:15:14.290Z,3.83
2023-03-06T09:16:14.420Z,3.80
2023-03-06T09:17:14.863Z,3.79
2023-03-06T09:18:14.309Z,3.80
2023-03-06T09:19:14.410Z,3.83
2023-03-06T09:20:14.315Z,3.96
2023-03-06T09:21:14.344Z,3.94
2023-03-06T09:22:14.272Z,3.96
2023-03-06T09:23:14.215Z,4.00
2023-03-06T09:24:14.682Z,4.00
2023-03-06T09:25:14.448Z,3.98
2023-03-06T09:26:14.441Z,3.97
2023-03-06T09:27:14.381Z,3.92
2023-03-06T09:28:14.352Z,3.90
2023-03-06T09:29:14.339Z,3.90
2023-03-06T09:30:14.570Z,3.90
2023-03-06T09:31:14.285Z,3.88
2023-03-06T09:32:14.310Z,3.85
2023-03-06T09:33:14.279Z,3.82
2023-03-06T09:34:14.105Z,3.79
2023-03-06T09:35:14.134Z,3.80
2023-03-06T09:36:14.197Z,3.78
2023-03-06T09:37:15.738Z,3.71
2023-03-06T09:38:14.137Z,3.70
2023-03-06T09:39:14.378Z,3.72
2023-03-06T09:40:14.234Z,3.78
2023-03-06T09:41:14.978Z,3.79
2023-03-06T09:42:14.362Z,3.78
2023-03-06T09:43:14.029Z,3.76
2023-03-06T09:44:14.371Z,3.79
2023-03-06T09:45:14.449Z,3.79
2023-03-06T09:46:14.219Z,3.72
2023-03-06T09:47:14.183Z,3.71
2023-03-06T09:48:14.054Z,3.72
2023-03-06T09:49:13.949Z,3.72
2023-03-06T09:50:13.959Z,3.71
2023-03-06T09:51:14.081Z,3.75
2023-03-06T09:52:13.918Z,3.75
2023-03-06T09:53:14.168Z,3.71
2023-03-06T09:54:14.135Z,3.68
2023-03-06T09:55:14.582Z,3.70
2023-03-06T09:56:14.083Z,3.70
2023-03-06T09:57:14.319Z,3.68
2023-03-06T09:58:14.014Z,3.68
2023-03-06T09:59:13.910Z,3.71
2023-03-06T10:00:14.206Z,3.70
2023-03-06T10:01:14.051Z,3.75
2023-03-06T10:02:14.031Z,3.78
2023-03-06T10:03:13.907Z,3.78
2023-03-06T10:04:13.798Z,3.80
2023-03-06T10:05:13.937Z,3.86
2023-03-06T10:06:14.242Z,3.90
2023-03-06T10:07:13.793Z,3.92
2023-03-06T10:08:13.784Z,3.94
2023-03-06T10:09:13.873Z,3.97
2023-03-06T10:10:13.949Z,3.98
2023-03-06T10:11:13.758Z,4.03
2023-03-06T10:12:13.930Z,4.04
2023-03-06T10:13:13.974Z,4.12
2023-03-06T10:14:13.740Z,4.14
2023-03-06T10:15:13.730Z,4.15
2023-03-06T10:16:13.820Z,4.15
2023-03-06T10:17:13.806Z,4.18
2023-03-06T10:18:13.778Z,4.19
2023-03-06T10:19:13.680Z,4.21
2023-03-06T10:20:13.823Z,4.22
2023-03-06T10:21:19.319Z,4.26
2023-03-06T10:22:14.079Z,4.26
2023-03-06T10:23:13.653Z,4.33
2023-03-06T10:24:13.726Z,4.43
2023-03-06T10:25:13.652Z,4.54
2023-03-06T10:26:13.609Z,4.69
2023-03-06T10:27:14.042Z,4.75
2023-03-06T10:28:13.691Z,4.75
2023-03-06T10:29:13.892Z,4.80
2023-03-06T10:30:13.790Z,4.88
2023-03-06T10:31:13.832Z,4.94
2023-03-06T10:32:13.703Z,5.01
2023-03-06T10:33:13.548Z,5.04
2023-03-06T10:34:13.947Z,5.01
2023-03-06T10:35:13.556Z,5.04
2023-03-06T10:36:13.555Z,4.98
2023-03-06T10:37:13.585Z,4.88
2023-03-06T10:38:13.623Z,4.77
2023-03-06T10:39:13.968Z,4.72
2023-03-06T10:40:13.462Z,4.70
2023-03-06T10:41:13.469Z,4.62
2023-03-06T10:42:13.942Z,4.57
2023-03-06T10:43:13.399Z,4.52
2023-03-06T10:44:13.551Z,4.51
2023-03-06T10:45:13.723Z,4.50
2023-03-06T10:46:13.951Z,4.51
2023-03-06T10:47:13.765Z,4.57
2023-03-06T10:48:14.011Z,4.64
2023-03-06T10:49:14.180Z,4.72
2023-03-06T10:50:13.995Z,4.70
2023-03-06T10:51:18.493Z,4.70
2023-03-06T10:52:13.811Z,4.76
2023-03-06T10:53:13.481Z,4.89
2023-03-06T10:54:13.407Z,4.95
2023-03-06T10:55:13.528Z,4.92
2023-03-06T10:56:13.627Z,4.96
2023-03-06T10:57:13.296Z,4.92
2023-03-06T10:58:13.472Z,4.80
2023-03-06T10:59:13.332Z,4.76
2023-03-06T11:00:13.297Z,4.83
2023-03-06T11:01:13.456Z,4.86
2023-03-06T11:02:13.335Z,4.86
2023-03-06T11:03:13.423Z,4.86
2023-03-06T11:04:13.244Z,4.89
2023-03-06T11:05:13.567Z,4.89
2023-03-06T11:06:13.520Z,4.95
2023-03-06T11:07:13.366Z,4.98
2023-03-06T11:08:13.246Z,5.04
2023-03-06T11:09:13.155Z,5.07
2023-03-06T11:10:13.220Z,5.14
2023-03-06T11:11:13.342Z,5.23
2023-03-06T11:12:13.314Z,5.35
2023-03-06T11:13:13.284Z,5.55
2023-03-06T11:14:13.373Z,5.70
2023-03-06T11:15:13.141Z,5.82
2023-03-06T11:16:13.268Z,5.91
2023-03-06T11:17:13.209Z,6.14
2023-03-06T11:18:13.527Z,6.26
2023-03-06T11:19:13.072Z,6.65
2023-03-06T11:20:13.293Z,6.76
2023-03-06T11:21:13.158Z,6.87
2023-03-06T11:22:13.326Z,6.98
2023-03-06T11:23:13.153Z,7.12
2023-03-06T11:24:13.217Z,7.16
2023-03-06T11:25:13.026Z,8.07
2023-03-06T11:26:13.037Z,9.40
2023-03-06T11:27:13.034Z,11.20
2023-03-06T11:28:12.988Z,12.62
2023-03-06T11:29:13.303Z,12.57
2023-03-06T11:30:13.180Z,11.53
2023-03-06T11:31:12.967Z,10.71
2023-03-06T11:32:13.011Z,9.89
2023-03-06T11:33:13.344Z,9.40
2023-03-06T11:34:12.931Z,8.97
2023-03-06T11:35:13.212Z,8.62
2023-03-06T11:36:13.330Z,7.99
2023-03-06T11:37:13.007Z,7.75
2023-03-06T11:38:13.044Z,7.60
2023-03-06T11:39:14.540Z,7.41
2023-03-06T11:40:13.043Z,7.20
2023-03-06T11:41:13.107Z,6.87
2023-03-06T11:42:13.104Z,6.66
2023-03-06T11:43:13.049Z,6.47
2023-03-06T11:44:12.830Z,6.41
2023-03-06T11:45:12.830Z,6.40
2023-03-06T11:46:12.900Z,6.36
2023-03-06T11:47:12.871Z,6.40
2023-03-06T11:48:13.005Z,6.47
2023-03-06T11:49:12.894Z,6.56
2023-03-06T11:50:12.714Z,6.73
2023-03-06T11:51:12.752Z,6.69
2023-03-06T11:52:12.730Z,6.97
2023-03-06T11:53:12.842Z,7.17
2023-03-06T11:54:12.860Z,7.99
2023-03-06T11:55:12.858Z,9.28
2023-03-06T11:56:12.850Z,9.42
2023-03-06T11:57:12.669Z,9.45
2023-03-06T11:58:12.655Z,9.16
2023-03-06T11:59:12.664Z,8.83
2023-03-06T12:00:12.668Z,8.63
2023-03-06T12:01:12.866Z,8.62
2023-03-06T12:02:12.794Z,8.37
2023-03-06T12:03:12.971Z,8.29
2023-03-06T12:04:12.797Z,8.21
2023-03-06T12:05:12.725Z,8.14
2023-03-06T12:06:12.894Z,8.35
2023-03-06T12:07:12.656Z,8.36
2023-03-06T12:08:12.685Z,8.45
2023-03-06T12:09:12.557Z,8.36
2023-03-06T12:10:12.550Z,8.29
2023-03-06T12:11:12.549Z,8.35
2023-03-06T12:12:12.572Z,8.71
2023-03-06T12:13:12.603Z,9.57
2023-03-06T12:14:12.675Z,11.16
2023-03-06T12:15:12.503Z,12.66
2023-03-06T12:16:12.534Z,12.70
2023-03-06T12:17:12.491Z,12.27
2023-03-06T12:18:12.676Z,11.68
2023-03-06T12:19:12.465Z,11.20
2023-03-06T12:20:12.459Z,11.24
2023-03-06T12:21:13.057Z,11.11
2023-03-06T12:22:13.397Z,11.09
2023-03-06T12:23:15.782Z,10.81
2023-03-06T12:24:13.074Z,10.68
2023-03-06T12:25:12.434Z,10.43
2023-03-06T12:26:12.574Z,9.94
2023-03-06T12:27:12.418Z,9.79
2023-03-06T12:28:12.680Z,9.66
2023-03-06T12:29:12.558Z,9.50
2023-03-06T12:30:12.839Z,9.35
2023-03-06T12:31:12.548Z,9.30
2023-03-06T12:32:12.582Z,10.59
2023-03-06T12:33:12.557Z,11.38
2023-03-06T12:34:12.985Z,12.62
2023-03-06T12:35:12.824Z,13.92
2023-03-06T12:36:12.793Z,14.38
2023-03-06T12:37:12.456Z,14.68
2023-03-06T12:38:12.637Z,14.10
2023-03-06T12:39:12.282Z,13.29
2023-03-06T12:40:12.308Z,13.32
2023-03-06T12:41:12.265Z,13.41
2023-03-06T12:42:22.584Z,13.67
2023-03-06T12:43:12.403Z,12.87
2023-03-06T12:44:12.393Z,12.41
2023-03-06T12:45:12.186Z,12.23
2023-03-06T12:46:12.259Z,11.83
2023-03-06T12:47:12.193Z,11.25
2023-03-06T12:48:12.940Z,10.84
2023-03-06T12:49:15.691Z,10.39
2023-03-06T12:50:12.295Z,10.06
2023-03-06T12:51:12.159Z,9.28
2023-03-06T12:52:12.499Z,8.90
2023-03-06T12:53:12.124Z,8.63
2023-03-06T12:54:12.164Z,8.48
2023-03-06T12:55:12.200Z,8.37
2023-03-06T12:56:12.518Z,8.18
2023-03-06T12:57:12.098Z,8.07
2023-03-06T12:58:12.161Z,7.90
2023-03-06T12:59:12.120Z,7.71
2023-03-06T13:00:12.148Z,7.53
2023-03-06T13:01:12.117Z,7.55
2023-03-06T13:02:12.076Z,7.50
2023-03-06T13:03:12.040Z,8.15
2023-03-06T13:04:12.028Z,8.93
2023-03-06T13:05:12.004Z,8.94
2023-03-06T13:06:12.020Z,8.83
2023-03-06T13:07:11.971Z,8.69
2023-03-06T13:08:12.146Z,8.54
2023-03-06T13:09:12.058Z,8.69
2023-03-06T13:10:11.945Z,8.48
2023-03-06T13:11:11.942Z,8.39
2023-03-06T13:12:12.210Z,8.35
2023-03-06T13:13:12.139Z,8.17
2023-03-06T13:14:11.991Z,8.11
2023-03-06T13:15:12.086Z,8.02
2023-03-06T13:16:12.145Z,7.99
2023-03-06T13:17:11.952Z,7.94